sensor_id;sensor_type;location;lat;lon;timestamp;temperature;humidity
17415;DHT22;8825;48.086;16.426;2024-03-02T00:00:20;7.70;76.40
17415;DHT22;8825;48.086;16.426;2024-03-02T00:02:49;7.60;76.30
17415;DHT22;8825;48.086;16.426;2024-03-02T00:05:19;7.60;76.30
17415;DHT22;8825;48.086;16.426;2024-03-02T00:07:54;7.60;76.50
17415;DHT22;8825;48.086;16.426;2024-03-02T00:10:42;7.60;76.60
17415;DHT22;8825;48.086;16.426;2024-03-02T00:12:58;7.60;76.60
17415;DHT22;8825;48.086;16.426;2024-03-02T00:15:48;7.60;76.60
17415;DHT22;8825;48.086;16.426;2024-03-02T00:18:19;7.60;76.80
17415;DHT22;8825;48.086;16.426;2024-03-02T00:20:47;7.60;76.60
17415;DHT22;8825;48.086;16.426;2024-03-02T00:23:16;7.50;76.70
17415;DHT22;8825;48.086;16.426;2024-03-02T00:28:17;7.40;76.50
17415;DHT22;8825;48.086;16.426;2024-03-02T00:33:35;7.30;76.70
17415;DHT22;8825;48.086;16.426;2024-03-02T00:36:03;7.20;76.60
17415;DHT22;8825;48.086;16.426;2024-03-02T00:38:32;7.20;76.80
17415;DHT22;8825;48.086;16.426;2024-03-02T00:41:04;7.20;76.80
17415;DHT22;8825;48.086;16.426;2024-03-02T00:43:41;7.20;77.00
17415;DHT22;8825;48.086;16.426;2024-03-02T00:46:16;7.10;77.00
17415;DHT22;8825;48.086;16.426;2024-03-02T00:48:58;7.10;77.20
17415;DHT22;8825;48.086;16.426;2024-03-02T00:51:34;7.10;77.20
17415;DHT22;8825;48.086;16.426;2024-03-02T00:54:04;7.10;77.30
17415;DHT22;8825;48.086;16.426;2024-03-02T00:56:33;7.20;77.60
17415;DHT22;8825;48.086;16.426;2024-03-02T00:59:03;7.20;77.70
17415;DHT22;8825;48.086;16.426;2024-03-02T01:01:30;7.20;77.70
17415;DHT22;8825;48.086;16.426;2024-03-02T01:03:58;7.20;77.60
17415;DHT22;8825;48.086;16.426;2024-03-02T01:06:25;7.20;77.70
17415;DHT22;8825;48.086;16.426;2024-03-02T01:08:53;7.20;78.50
17415;DHT22;8825;48.086;16.426;2024-03-02T01:11:21;7.30;78.60
17415;DHT22;8825;48.086;16.426;2024-03-02T01:13:48;7.30;77.70
17415;DHT22;8825;48.086;16.426;2024-03-02T01:16:16;7.30;77.70
17415;DHT22;8825;48.086;16.426;2024-03-02T01:18:44;7.30;77.60
17415;DHT22;8825;48.086;16.426;2024-03-02T01:21:11;7.20;77.30
17415;DHT22;8825;48.086;16.426;2024-03-02T01:23:39;7.00;76.80
17415;DHT22;8825;48.086;16.426;2024-03-02T01:26:06;6.90;77.00
17415;DHT22;8825;48.086;16.426;2024-03-02T01:28:34;6.80;77.20
17415;DHT22;8825;48.086;16.426;2024-03-02T01:31:01;6.80;77.30
17415;DHT22;8825;48.086;16.426;2024-03-02T01:33:29;6.80;78.20
17415;DHT22;8825;48.086;16.426;2024-03-02T01:35:56;6.80;77.60
17415;DHT22;8825;48.086;16.426;2024-03-02T01:38:24;6.90;77.80
17415;DHT22;8825;48.086;16.426;2024-03-02T01:40:52;6.90;78.00
17415;DHT22;8825;48.086;16.426;2024-03-02T01:43:19;6.90;78.10
17415;DHT22;8825;48.086;16.426;2024-03-02T01:45:47;6.90;78.10
17415;DHT22;8825;48.086;16.426;2024-03-02T01:48:14;6.90;77.90
17415;DHT22;8825;48.086;16.426;2024-03-02T01:50:42;6.90;77.80
17415;DHT22;8825;48.086;16.426;2024-03-02T01:53:10;6.90;77.40
17415;DHT22;8825;48.086;16.426;2024-03-02T01:55:38;6.80;77.20
17415;DHT22;8825;48.086;16.426;2024-03-02T01:58:05;6.80;77.10
17415;DHT22;8825;48.086;16.426;2024-03-02T02:00:33;6.80;76.90
17415;DHT22;8825;48.086;16.426;2024-03-02T02:03:00;6.70;76.80
17415;DHT22;8825;48.086;16.426;2024-03-02T02:05:28;6.70;76.70
17415;DHT22;8825;48.086;16.426;2024-03-02T02:07:56;6.70;76.60
17415;DHT22;8825;48.086;16.426;2024-03-02T02:10:25;6.60;76.60
17415;DHT22;8825;48.086;16.426;2024-03-02T02:12:52;6.60;76.60
17415;DHT22;8825;48.086;16.426;2024-03-02T02:15:30;6.60;76.70
17415;DHT22;8825;48.086;16.426;2024-03-02T02:17:58;6.60;76.70
17415;DHT22;8825;48.086;16.426;2024-03-02T02:20:26;6.60;76.70
17415;DHT22;8825;48.086;16.426;2024-03-02T02:23:02;6.60;76.80
17415;DHT22;8825;48.086;16.426;2024-03-02T02:25:31;6.60;76.90
17415;DHT22;8825;48.086;16.426;2024-03-02T02:27:59;6.50;76.90
17415;DHT22;8825;48.086;16.426;2024-03-02T02:30:28;6.60;77.00
17415;DHT22;8825;48.086;16.426;2024-03-02T02:32:56;6.60;77.00
17415;DHT22;8825;48.086;16.426;2024-03-02T02:35:24;6.50;76.80
17415;DHT22;8825;48.086;16.426;2024-03-02T02:37:54;6.50;76.70
17415;DHT22;8825;48.086;16.426;2024-03-02T02:40:22;6.50;76.60
17415;DHT22;8825;48.086;16.426;2024-03-02T02:42:50;6.40;76.40
17415;DHT22;8825;48.086;16.426;2024-03-02T02:45:20;6.30;76.40
17415;DHT22;8825;48.086;16.426;2024-03-02T02:47:48;6.30;76.40
17415;DHT22;8825;48.086;16.426;2024-03-02T02:50:16;6.30;76.50
17415;DHT22;8825;48.086;16.426;2024-03-02T02:52:44;6.20;76.60
17415;DHT22;8825;48.086;16.426;2024-03-02T02:55:13;6.30;76.60
17415;DHT22;8825;48.086;16.426;2024-03-02T02:57:42;6.20;76.60
17415;DHT22;8825;48.086;16.426;2024-03-02T03:00:15;6.20;76.60
17415;DHT22;8825;48.086;16.426;2024-03-02T03:02:46;6.20;76.60
17415;DHT22;8825;48.086;16.426;2024-03-02T03:05:15;6.10;76.60
17415;DHT22;8825;48.086;16.426;2024-03-02T03:07:43;6.20;76.80
17415;DHT22;8825;48.086;16.426;2024-03-02T03:10:11;6.20;76.80
17415;DHT22;8825;48.086;16.426;2024-03-02T03:12:39;6.10;76.80
17415;DHT22;8825;48.086;16.426;2024-03-02T03:15:09;6.10;76.90
17415;DHT22;8825;48.086;16.426;2024-03-02T03:17:38;6.10;77.00
17415;DHT22;8825;48.086;16.426;2024-03-02T03:20:06;6.10;77.30
17415;DHT22;8825;48.086;16.426;2024-03-02T03:22:36;6.10;77.10
17415;DHT22;8825;48.086;16.426;2024-03-02T03:25:04;6.10;77.10
17415;DHT22;8825;48.086;16.426;2024-03-02T03:27:32;6.10;77.30
17415;DHT22;8825;48.086;16.426;2024-03-02T03:29:59;6.10;77.40
17415;DHT22;8825;48.086;16.426;2024-03-02T03:32:27;6.10;77.40
17415;DHT22;8825;48.086;16.426;2024-03-02T03:34:54;6.10;77.70
17415;DHT22;8825;48.086;16.426;2024-03-02T03:37:22;6.10;78.50
17415;DHT22;8825;48.086;16.426;2024-03-02T03:39:50;6.10;77.70
17415;DHT22;8825;48.086;16.426;2024-03-02T03:42:18;6.10;77.80
17415;DHT22;8825;48.086;16.426;2024-03-02T03:44:45;6.10;78.10
17415;DHT22;8825;48.086;16.426;2024-03-02T03:47:13;6.10;78.40
17415;DHT22;8825;48.086;16.426;2024-03-02T03:49:40;6.10;78.60
17415;DHT22;8825;48.086;16.426;2024-03-02T03:52:08;6.20;78.90
17415;DHT22;8825;48.086;16.426;2024-03-02T03:54:35;6.20;79.10
17415;DHT22;8825;48.086;16.426;2024-03-02T03:57:05;6.30;79.20
17415;DHT22;8825;48.086;16.426;2024-03-02T03:59:32;6.30;79.40
17415;DHT22;8825;48.086;16.426;2024-03-02T04:02:00;6.40;79.50
17415;DHT22;8825;48.086;16.426;2024-03-02T04:04:29;6.40;79.60
17415;DHT22;8825;48.086;16.426;2024-03-02T04:06:56;6.40;79.60
17415;DHT22;8825;48.086;16.426;2024-03-02T04:09:24;6.40;79.70
17415;DHT22;8825;48.086;16.426;2024-03-02T04:11:52;6.50;79.50
17415;DHT22;8825;48.086;16.426;2024-03-02T04:14:19;6.50;79.90
17415;DHT22;8825;48.086;16.426;2024-03-02T04:16:47;6.50;79.80
17415;DHT22;8825;48.086;16.426;2024-03-02T04:19:14;6.50;79.90
17415;DHT22;8825;48.086;16.426;2024-03-02T04:21:42;6.50;80.10
17415;DHT22;8825;48.086;16.426;2024-03-02T04:24:09;6.40;80.30
17415;DHT22;8825;48.086;16.426;2024-03-02T04:26:37;6.30;81.40
17415;DHT22;8825;48.086;16.426;2024-03-02T04:29:04;6.30;81.10
17415;DHT22;8825;48.086;16.426;2024-03-02T04:31:32;6.20;81.10
17415;DHT22;8825;48.086;16.426;2024-03-02T04:33:59;6.20;81.40
17415;DHT22;8825;48.086;16.426;2024-03-02T04:36:27;6.00;81.80
17415;DHT22;8825;48.086;16.426;2024-03-02T04:38:54;5.90;82.20
17415;DHT22;8825;48.086;16.426;2024-03-02T04:41:22;5.80;82.40
17415;DHT22;8825;48.086;16.426;2024-03-02T04:43:49;5.80;82.70
17415;DHT22;8825;48.086;16.426;2024-03-02T04:46:17;5.80;83.80
17415;DHT22;8825;48.086;16.426;2024-03-02T04:48:44;5.90;83.20
17415;DHT22;8825;48.086;16.426;2024-03-02T04:51:12;6.00;83.20
17415;DHT22;8825;48.086;16.426;2024-03-02T04:53:40;6.00;83.30
17415;DHT22;8825;48.086;16.426;2024-03-02T04:56:07;6.10;83.30
17415;DHT22;8825;48.086;16.426;2024-03-02T04:58:36;6.20;83.30
17415;DHT22;8825;48.086;16.426;2024-03-02T05:01:04;6.20;83.20
17415;DHT22;8825;48.086;16.426;2024-03-02T05:03:32;6.30;83.10
17415;DHT22;8825;48.086;16.426;2024-03-02T05:06:01;6.30;83.10
17415;DHT22;8825;48.086;16.426;2024-03-02T05:08:28;6.30;83.00
17415;DHT22;8825;48.086;16.426;2024-03-02T05:10:56;6.30;82.80
17415;DHT22;8825;48.086;16.426;2024-03-02T05:13:25;6.20;82.80
17415;DHT22;8825;48.086;16.426;2024-03-02T05:15:53;6.20;82.90
17415;DHT22;8825;48.086;16.426;2024-03-02T05:18:20;6.30;82.90
17415;DHT22;8825;48.086;16.426;2024-03-02T05:20:49;6.30;83.80
17415;DHT22;8825;48.086;16.426;2024-03-02T05:23:17;6.30;82.90
17415;DHT22;8825;48.086;16.426;2024-03-02T05:25:44;6.40;83.10
17415;DHT22;8825;48.086;16.426;2024-03-02T05:28:12;6.40;83.00
17415;DHT22;8825;48.086;16.426;2024-03-02T05:30:39;6.40;82.90
17415;DHT22;8825;48.086;16.426;2024-03-02T05:33:08;6.50;83.00
17415;DHT22;8825;48.086;16.426;2024-03-02T05:35:36;6.50;82.90
17415;DHT22;8825;48.086;16.426;2024-03-02T05:38:04;6.50;82.90
17415;DHT22;8825;48.086;16.426;2024-03-02T05:40:31;6.60;83.10
17415;DHT22;8825;48.086;16.426;2024-03-02T05:42:59;6.60;83.00
17415;DHT22;8825;48.086;16.426;2024-03-02T05:45:26;6.70;83.00
17415;DHT22;8825;48.086;16.426;2024-03-02T05:47:54;6.70;82.90
17415;DHT22;8825;48.086;16.426;2024-03-02T05:50:21;6.70;82.70
17415;DHT22;8825;48.086;16.426;2024-03-02T05:52:49;6.70;82.60
17415;DHT22;8825;48.086;16.426;2024-03-02T05:55:16;6.70;82.40
17415;DHT22;8825;48.086;16.426;2024-03-02T05:57:44;6.70;82.40
17415;DHT22;8825;48.086;16.426;2024-03-02T06:00:13;6.70;83.30
17415;DHT22;8825;48.086;16.426;2024-03-02T06:02:42;6.80;82.50
17415;DHT22;8825;48.086;16.426;2024-03-02T06:05:10;6.80;82.50
17415;DHT22;8825;48.086;16.426;2024-03-02T06:07:38;6.80;82.50
17415;DHT22;8825;48.086;16.426;2024-03-02T06:10:06;6.80;82.50
17415;DHT22;8825;48.086;16.426;2024-03-02T06:12:35;6.90;82.60
17415;DHT22;8825;48.086;16.426;2024-03-02T06:15:03;6.90;82.70
17415;DHT22;8825;48.086;16.426;2024-03-02T06:17:30;6.90;82.90
17415;DHT22;8825;48.086;16.426;2024-03-02T06:19:58;7.00;83.00
17415;DHT22;8825;48.086;16.426;2024-03-02T06:22:25;7.00;83.00
17415;DHT22;8825;48.086;16.426;2024-03-02T06:24:53;7.10;83.10
17415;DHT22;8825;48.086;16.426;2024-03-02T06:27:21;7.10;83.20
17415;DHT22;8825;48.086;16.426;2024-03-02T06:29:49;7.20;83.30
17415;DHT22;8825;48.086;16.426;2024-03-02T06:32:18;7.20;83.40
17415;DHT22;8825;48.086;16.426;2024-03-02T06:34:45;7.30;83.30
17415;DHT22;8825;48.086;16.426;2024-03-02T06:37:13;7.40;83.40
17415;DHT22;8825;48.086;16.426;2024-03-02T06:39:43;7.50;83.40
17415;DHT22;8825;48.086;16.426;2024-03-02T06:42:10;7.60;83.50
17415;DHT22;8825;48.086;16.426;2024-03-02T06:44:38;7.60;83.40
17415;DHT22;8825;48.086;16.426;2024-03-02T06:47:06;7.70;83.40
17415;DHT22;8825;48.086;16.426;2024-03-02T06:49:33;7.70;83.70
17415;DHT22;8825;48.086;16.426;2024-03-02T06:52:01;7.80;83.60
17415;DHT22;8825;48.086;16.426;2024-03-02T06:54:29;7.80;83.60
17415;DHT22;8825;48.086;16.426;2024-03-02T06:56:56;7.90;83.60
17415;DHT22;8825;48.086;16.426;2024-03-02T06:59:24;7.90;83.70
17415;DHT22;8825;48.086;16.426;2024-03-02T07:01:51;8.00;83.80
17415;DHT22;8825;48.086;16.426;2024-03-02T07:04:19;8.00;83.70
17415;DHT22;8825;48.086;16.426;2024-03-02T07:06:46;8.10;83.80
17415;DHT22;8825;48.086;16.426;2024-03-02T07:09:14;8.10;83.90
17415;DHT22;8825;48.086;16.426;2024-03-02T07:11:41;8.10;83.80
17415;DHT22;8825;48.086;16.426;2024-03-02T07:14:09;8.10;83.80
17415;DHT22;8825;48.086;16.426;2024-03-02T07:16:38;8.00;84.10
17415;DHT22;8825;48.086;16.426;2024-03-02T07:19:07;7.90;84.60
17415;DHT22;8825;48.086;16.426;2024-03-02T07:21:34;7.80;84.70
17415;DHT22;8825;48.086;16.426;2024-03-02T07:24:02;7.80;84.90
17415;DHT22;8825;48.086;16.426;2024-03-02T07:26:33;7.90;85.00
17415;DHT22;8825;48.086;16.426;2024-03-02T07:29:01;7.90;84.90
17415;DHT22;8825;48.086;16.426;2024-03-02T07:31:28;7.90;84.90
17415;DHT22;8825;48.086;16.426;2024-03-02T07:33:56;8.00;84.80
17415;DHT22;8825;48.086;16.426;2024-03-02T07:36:43;8.00;84.90
17415;DHT22;8825;48.086;16.426;2024-03-02T07:39:10;8.00;84.30
17415;DHT22;8825;48.086;16.426;2024-03-02T07:41:38;8.10;84.60
17415;DHT22;8825;48.086;16.426;2024-03-02T07:44:05;8.10;84.70
17415;DHT22;8825;48.086;16.426;2024-03-02T07:46:33;8.10;84.60
17415;DHT22;8825;48.086;16.426;2024-03-02T07:49:00;8.20;84.50
17415;DHT22;8825;48.086;16.426;2024-03-02T07:51:28;8.20;84.40
17415;DHT22;8825;48.086;16.426;2024-03-02T07:53:55;8.20;84.30
17415;DHT22;8825;48.086;16.426;2024-03-02T07:56:23;8.20;84.10
17415;DHT22;8825;48.086;16.426;2024-03-02T07:58:50;8.20;84.30
17415;DHT22;8825;48.086;16.426;2024-03-02T08:01:18;8.30;84.40
17415;DHT22;8825;48.086;16.426;2024-03-02T08:03:46;8.40;84.20
17415;DHT22;8825;48.086;16.426;2024-03-02T08:06:17;8.40;84.00
17415;DHT22;8825;48.086;16.426;2024-03-02T08:08:47;8.50;83.90
17415;DHT22;8825;48.086;16.426;2024-03-02T08:11:14;8.50;83.70
17415;DHT22;8825;48.086;16.426;2024-03-02T08:13:42;8.60;83.70
17415;DHT22;8825;48.086;16.426;2024-03-02T08:16:10;8.60;83.40
17415;DHT22;8825;48.086;16.426;2024-03-02T08:18:37;8.60;83.20
17415;DHT22;8825;48.086;16.426;2024-03-02T08:21:05;8.50;83.10
17415;DHT22;8825;48.086;16.426;2024-03-02T08:23:35;8.60;83.30
17415;DHT22;8825;48.086;16.426;2024-03-02T08:26:03;8.60;83.30
17415;DHT22;8825;48.086;16.426;2024-03-02T08:28:30;8.70;83.20
17415;DHT22;8825;48.086;16.426;2024-03-02T08:30:58;8.70;83.30
17415;DHT22;8825;48.086;16.426;2024-03-02T08:33:26;8.80;83.20
17415;DHT22;8825;48.086;16.426;2024-03-02T08:35:53;8.80;82.90
17415;DHT22;8825;48.086;16.426;2024-03-02T08:38:21;8.80;82.80
17415;DHT22;8825;48.086;16.426;2024-03-02T08:40:49;8.80;82.70
17415;DHT22;8825;48.086;16.426;2024-03-02T08:43:18;8.90;82.80
17415;DHT22;8825;48.086;16.426;2024-03-02T08:45:45;8.90;82.70
17415;DHT22;8825;48.086;16.426;2024-03-02T08:48:13;8.90;82.80
17415;DHT22;8825;48.086;16.426;2024-03-02T08:50:41;9.00;82.70
17415;DHT22;8825;48.086;16.426;2024-03-02T08:53:08;9.10;82.60
17415;DHT22;8825;48.086;16.426;2024-03-02T08:55:36;9.10;82.50
17415;DHT22;8825;48.086;16.426;2024-03-02T08:58:04;9.20;82.50
17415;DHT22;8825;48.086;16.426;2024-03-02T09:00:31;9.30;82.60
17415;DHT22;8825;48.086;16.426;2024-03-02T09:02:59;9.30;82.60
17415;DHT22;8825;48.086;16.426;2024-03-02T09:05:26;9.40;82.70
17415;DHT22;8825;48.086;16.426;2024-03-02T09:07:54;9.50;82.50
17415;DHT22;8825;48.086;16.426;2024-03-02T09:10:22;9.70;82.60
17415;DHT22;8825;48.086;16.426;2024-03-02T09:12:49;9.70;82.50
17415;DHT22;8825;48.086;16.426;2024-03-02T09:15:17;9.80;82.30
17415;DHT22;8825;48.086;16.426;2024-03-02T09:17:44;9.90;82.30
17415;DHT22;8825;48.086;16.426;2024-03-02T09:20:12;9.90;82.20
17415;DHT22;8825;48.086;16.426;2024-03-02T09:22:40;10.00;82.10
17415;DHT22;8825;48.086;16.426;2024-03-02T09:25:08;10.10;82.30
17415;DHT22;8825;48.086;16.426;2024-03-02T09:27:39;10.20;83.00
17415;DHT22;8825;48.086;16.426;2024-03-02T09:30:11;10.30;82.10
17415;DHT22;8825;48.086;16.426;2024-03-02T09:32:40;10.40;82.00
17415;DHT22;8825;48.086;16.426;2024-03-02T09:35:08;10.40;81.70
17415;DHT22;8825;48.086;16.426;2024-03-02T09:37:36;10.50;81.70
17415;DHT22;8825;48.086;16.426;2024-03-02T09:40:04;10.60;81.80
17415;DHT22;8825;48.086;16.426;2024-03-02T09:42:32;10.70;81.70
17415;DHT22;8825;48.086;16.426;2024-03-02T09:45:00;10.80;81.60
17415;DHT22;8825;48.086;16.426;2024-03-02T09:47:28;10.90;81.60
17415;DHT22;8825;48.086;16.426;2024-03-02T09:49:56;11.10;81.50
17415;DHT22;8825;48.086;16.426;2024-03-02T09:52:24;11.20;81.40
17415;DHT22;8825;48.086;16.426;2024-03-02T09:54:51;11.30;81.30
17415;DHT22;8825;48.086;16.426;2024-03-02T09:57:19;11.40;81.10
17415;DHT22;8825;48.086;16.426;2024-03-02T09:59:47;11.60;80.90
17415;DHT22;8825;48.086;16.426;2024-03-02T10:02:14;11.70;80.70
17415;DHT22;8825;48.086;16.426;2024-03-02T10:04:42;11.90;80.40
17415;DHT22;8825;48.086;16.426;2024-03-02T10:07:15;12.00;80.00
17415;DHT22;8825;48.086;16.426;2024-03-02T10:10:15;12.10;79.90
17415;DHT22;8825;48.086;16.426;2024-03-02T10:12:42;12.20;79.60
17415;DHT22;8825;48.086;16.426;2024-03-02T10:15:10;12.30;79.70
17415;DHT22;8825;48.086;16.426;2024-03-02T10:17:37;12.40;79.60
17415;DHT22;8825;48.086;16.426;2024-03-02T10:20:26;12.40;79.50
17415;DHT22;8825;48.086;16.426;2024-03-02T10:22:51;12.50;79.50
17415;DHT22;8825;48.086;16.426;2024-03-02T10:25:34;12.60;79.40
17415;DHT22;8825;48.086;16.426;2024-03-02T10:28:01;12.70;79.60
17415;DHT22;8825;48.086;16.426;2024-03-02T10:30:31;12.70;79.60
17415;DHT22;8825;48.086;16.426;2024-03-02T10:33:00;12.80;79.70
17415;DHT22;8825;48.086;16.426;2024-03-02T10:35:29;12.90;79.90
17415;DHT22;8825;48.086;16.426;2024-03-02T10:37:59;12.90;79.60
17415;DHT22;8825;48.086;16.426;2024-03-02T10:40:27;13.00;79.50
17415;DHT22;8825;48.086;16.426;2024-03-02T10:42:55;13.10;79.50
17415;DHT22;8825;48.086;16.426;2024-03-02T10:45:23;13.10;79.30
17415;DHT22;8825;48.086;16.426;2024-03-02T10:47:51;13.20;79.30
17415;DHT22;8825;48.086;16.426;2024-03-02T10:50:19;13.20;79.40
17415;DHT22;8825;48.086;16.426;2024-03-02T10:52:46;13.30;79.10
17415;DHT22;8825;48.086;16.426;2024-03-02T10:55:14;13.30;79.00
17415;DHT22;8825;48.086;16.426;2024-03-02T10:57:51;13.30;78.60
17415;DHT22;8825;48.086;16.426;2024-03-02T11:00:15;13.40;78.60
17415;DHT22;8825;48.086;16.426;2024-03-02T11:02:51;13.40;78.30
17415;DHT22;8825;48.086;16.426;2024-03-02T11:05:29;13.50;77.90
17415;DHT22;8825;48.086;16.426;2024-03-02T11:08:00;13.60;77.30
17415;DHT22;8825;48.086;16.426;2024-03-02T11:10:34;13.70;77.10
17415;DHT22;8825;48.086;16.426;2024-03-02T11:13:11;13.70;76.80
17415;DHT22;8825;48.086;16.426;2024-03-02T11:15:40;13.80;76.30
17415;DHT22;8825;48.086;16.426;2024-03-02T11:18:10;13.80;75.80
17415;DHT22;8825;48.086;16.426;2024-03-02T11:20:38;13.80;75.30
17415;DHT22;8825;48.086;16.426;2024-03-02T11:23:08;13.80;75.10
17415;DHT22;8825;48.086;16.426;2024-03-02T11:25:36;13.80;74.70
17415;DHT22;8825;48.086;16.426;2024-03-02T11:28:06;13.80;74.30
17415;DHT22;8825;48.086;16.426;2024-03-02T11:33:07;13.80;74.80
17415;DHT22;8825;48.086;16.426;2024-03-02T11:35:43;13.70;73.80
17415;DHT22;8825;48.086;16.426;2024-03-02T11:38:09;13.60;73.40
17415;DHT22;8825;48.086;16.426;2024-03-02T11:40:39;13.60;73.40
17415;DHT22;8825;48.086;16.426;2024-03-02T11:43:07;13.60;73.50
17415;DHT22;8825;48.086;16.426;2024-03-02T11:45:36;13.50;73.30
17415;DHT22;8825;48.086;16.426;2024-03-02T11:48:06;13.50;73.20
17415;DHT22;8825;48.086;16.426;2024-03-02T11:50:49;13.50;73.70
17415;DHT22;8825;48.086;16.426;2024-03-02T11:53:17;13.50;73.20
17415;DHT22;8825;48.086;16.426;2024-03-02T11:55:45;13.50;73.20
17415;DHT22;8825;48.086;16.426;2024-03-02T11:58:17;13.40;73.20
17415;DHT22;8825;48.086;16.426;2024-03-02T12:00:50;13.40;73.30
17415;DHT22;8825;48.086;16.426;2024-03-02T12:03:20;13.40;73.10
17415;DHT22;8825;48.086;16.426;2024-03-02T12:05:55;13.40;73.30
17415;DHT22;8825;48.086;16.426;2024-03-02T12:08:23;13.50;74.10
17415;DHT22;8825;48.086;16.426;2024-03-02T12:11:01;13.50;73.20
17415;DHT22;8825;48.086;16.426;2024-03-02T12:13:29;13.50;73.00
17415;DHT22;8825;48.086;16.426;2024-03-02T12:15:57;13.60;72.90
17415;DHT22;8825;48.086;16.426;2024-03-02T12:18:25;13.60;72.80
17415;DHT22;8825;48.086;16.426;2024-03-02T12:20:52;13.70;72.70
17415;DHT22;8825;48.086;16.426;2024-03-02T12:23:22;13.70;72.80
17415;DHT22;8825;48.086;16.426;2024-03-02T12:25:50;13.80;72.70
17415;DHT22;8825;48.086;16.426;2024-03-02T12:28:18;13.90;72.50
17415;DHT22;8825;48.086;16.426;2024-03-02T12:30:46;13.90;72.30
17415;DHT22;8825;48.086;16.426;2024-03-02T12:33:14;14.00;72.10
17415;DHT22;8825;48.086;16.426;2024-03-02T12:35:42;14.00;71.90
17415;DHT22;8825;48.086;16.426;2024-03-02T12:38:10;14.00;71.70
17415;DHT22;8825;48.086;16.426;2024-03-02T12:40:37;14.10;71.70
17415;DHT22;8825;48.086;16.426;2024-03-02T12:43:06;14.20;71.50
17415;DHT22;8825;48.086;16.426;2024-03-02T12:45:34;14.30;71.50
17415;DHT22;8825;48.086;16.426;2024-03-02T12:48:03;14.50;71.40
17415;DHT22;8825;48.086;16.426;2024-03-02T12:50:32;14.60;71.00
17415;DHT22;8825;48.086;16.426;2024-03-02T12:53:00;14.60;70.50
17415;DHT22;8825;48.086;16.426;2024-03-02T12:55:28;14.60;70.40
17415;DHT22;8825;48.086;16.426;2024-03-02T12:57:56;14.60;70.20
17415;DHT22;8825;48.086;16.426;2024-03-02T13:00:25;14.70;70.00
17415;DHT22;8825;48.086;16.426;2024-03-02T13:02:52;14.70;69.70
17415;DHT22;8825;48.086;16.426;2024-03-02T13:05:20;14.70;69.70
17415;DHT22;8825;48.086;16.426;2024-03-02T13:07:49;14.80;69.70
17415;DHT22;8825;48.086;16.426;2024-03-02T13:10:17;15.00;70.30
17415;DHT22;8825;48.086;16.426;2024-03-02T13:12:45;15.10;69.00
17415;DHT22;8825;48.086;16.426;2024-03-02T13:15:13;15.20;68.70
17415;DHT22;8825;48.086;16.426;2024-03-02T13:17:40;15.30;68.60
17415;DHT22;8825;48.086;16.426;2024-03-02T13:20:08;15.40;67.60
17415;DHT22;8825;48.086;16.426;2024-03-02T13:22:37;15.30;67.20
17415;DHT22;8825;48.086;16.426;2024-03-02T13:25:05;15.30;67.00
17415;DHT22;8825;48.086;16.426;2024-03-02T13:27:34;15.30;67.00
17415;DHT22;8825;48.086;16.426;2024-03-02T13:30:05;15.20;67.00
17415;DHT22;8825;48.086;16.426;2024-03-02T13:32:35;15.20;67.00
17415;DHT22;8825;48.086;16.426;2024-03-02T13:35:02;15.20;67.00
17415;DHT22;8825;48.086;16.426;2024-03-02T13:37:30;15.10;67.00
17415;DHT22;8825;48.086;16.426;2024-03-02T13:39:57;15.10;67.10
17415;DHT22;8825;48.086;16.426;2024-03-02T13:42:25;15.10;67.00
17415;DHT22;8825;48.086;16.426;2024-03-02T13:44:54;15.00;66.80
17415;DHT22;8825;48.086;16.426;2024-03-02T13:47:21;14.90;66.90
17415;DHT22;8825;48.086;16.426;2024-03-02T13:49:49;15.00;67.00
17415;DHT22;8825;48.086;16.426;2024-03-02T13:52:16;14.90;67.10
17415;DHT22;8825;48.086;16.426;2024-03-02T13:54:46;14.90;67.00
17415;DHT22;8825;48.086;16.426;2024-03-02T13:57:14;14.80;66.90
17415;DHT22;8825;48.086;16.426;2024-03-02T13:59:45;14.80;67.00
17415;DHT22;8825;48.086;16.426;2024-03-02T14:02:12;14.80;67.20
17415;DHT22;8825;48.086;16.426;2024-03-02T14:04:40;14.70;67.30
17415;DHT22;8825;48.086;16.426;2024-03-02T14:07:08;14.70;67.20
17415;DHT22;8825;48.086;16.426;2024-03-02T14:09:37;14.70;67.50
17415;DHT22;8825;48.086;16.426;2024-03-02T14:12:05;14.60;67.50
17415;DHT22;8825;48.086;16.426;2024-03-02T14:14:33;14.60;67.70
17415;DHT22;8825;48.086;16.426;2024-03-02T14:17:01;14.50;67.70
17415;DHT22;8825;48.086;16.426;2024-03-02T14:19:33;14.50;67.90
17415;DHT22;8825;48.086;16.426;2024-03-02T14:22:00;14.50;68.00
17415;DHT22;8825;48.086;16.426;2024-03-02T14:24:28;14.40;68.10
17415;DHT22;8825;48.086;16.426;2024-03-02T14:26:55;14.40;68.20
17415;DHT22;8825;48.086;16.426;2024-03-02T14:29:28;14.30;68.20
17415;DHT22;8825;48.086;16.426;2024-03-02T14:31:56;14.30;68.40
17415;DHT22;8825;48.086;16.426;2024-03-02T14:34:23;14.30;68.40
17415;DHT22;8825;48.086;16.426;2024-03-02T14:36:51;14.20;68.60
17415;DHT22;8825;48.086;16.426;2024-03-02T14:39:18;14.20;68.70
17415;DHT22;8825;48.086;16.426;2024-03-02T14:41:46;14.20;68.70
17415;DHT22;8825;48.086;16.426;2024-03-02T14:44:15;14.20;68.80
17415;DHT22;8825;48.086;16.426;2024-03-02T14:46:48;14.10;68.70
17415;DHT22;8825;48.086;16.426;2024-03-02T14:49:17;14.10;68.70
17415;DHT22;8825;48.086;16.426;2024-03-02T14:51:45;14.10;68.70
17415;DHT22;8825;48.086;16.426;2024-03-02T14:54:12;14.00;69.00
17415;DHT22;8825;48.086;16.426;2024-03-02T14:56:40;14.00;69.00
17415;DHT22;8825;48.086;16.426;2024-03-02T14:59:07;13.90;68.90
17415;DHT22;8825;48.086;16.426;2024-03-02T15:01:35;13.90;69.10
17415;DHT22;8825;48.086;16.426;2024-03-02T15:04:02;13.90;69.20
17415;DHT22;8825;48.086;16.426;2024-03-02T15:06:30;13.90;69.20
17415;DHT22;8825;48.086;16.426;2024-03-02T15:08:57;13.90;69.40
17415;DHT22;8825;48.086;16.426;2024-03-02T15:11:25;13.90;69.70
17415;DHT22;8825;48.086;16.426;2024-03-02T15:13:53;13.90;69.60
17415;DHT22;8825;48.086;16.426;2024-03-02T15:16:20;13.80;70.50
17415;DHT22;8825;48.086;16.426;2024-03-02T15:18:48;13.80;70.00
17415;DHT22;8825;48.086;16.426;2024-03-02T15:21:16;13.80;69.70
17415;DHT22;8825;48.086;16.426;2024-03-02T15:23:45;13.80;69.80
17415;DHT22;8825;48.086;16.426;2024-03-02T15:26:12;13.80;70.80
17415;DHT22;8825;48.086;16.426;2024-03-02T15:28:40;13.80;70.20
17415;DHT22;8825;48.086;16.426;2024-03-02T15:31:07;13.70;70.30
17415;DHT22;8825;48.086;16.426;2024-03-02T15:33:35;13.70;70.50
17415;DHT22;8825;48.086;16.426;2024-03-02T15:36:03;13.60;70.80
17415;DHT22;8825;48.086;16.426;2024-03-02T15:38:31;13.60;71.00
17415;DHT22;8825;48.086;16.426;2024-03-02T15:40:59;13.50;71.10
17415;DHT22;8825;48.086;16.426;2024-03-02T15:43:26;13.50;71.10
17415;DHT22;8825;48.086;16.426;2024-03-02T15:45:55;13.60;71.30
17415;DHT22;8825;48.086;16.426;2024-03-02T15:48:23;13.50;71.30
17415;DHT22;8825;48.086;16.426;2024-03-02T15:50:50;13.50;71.40
17415;DHT22;8825;48.086;16.426;2024-03-02T15:53:19;13.50;71.60
17415;DHT22;8825;48.086;16.426;2024-03-02T15:55:46;13.40;71.60